Allerton, Iowa
Current Conditions -  °F | °C
As of 8:15 AM on Friday 31 Oct 2014 (Local Time) from KCNC Reporting Station
Clear Clear  
Wind Chill: 19°   Ceiling: Unl
Heat Index: 30°   Visibility: 10mi
Dew Point: 18°   Wind: 16mph
Humidity: 60%   Direction: 360°N
Pressure: 30.43"   Gusts: 25mph
Location:  40.71°N, 93.37°W
Report Text: KCNC 311315Z AUTO 36014G22KT 10SM CLR M01/M08 A3043 RMK AO2
Loading
Personal Weather Stations






























Interactive Weather Map
Tropical Storm Tracking
New forecast layout! Learn more

10-Day Weather Forecast

Advertisements
Track Severe Weather on mobile